createdAt,value
2022-11-17T00:01:38.136Z,96144.63
2022-11-17T00:04:06.493Z,96134.84
2022-11-17T00:06:34.793Z,96138.16
2022-11-17T00:09:04.469Z,96126.88
2022-11-17T00:11:52.706Z,96126.28
2022-11-17T00:14:36.755Z,96123.63
2022-11-17T00:17:08.072Z,96121.34
2022-11-17T00:19:53.631Z,96125.44
2022-11-17T00:22:22.296Z,96107.44
2022-11-17T00:24:52.340Z,96102.97
2022-11-17T00:27:20.558Z,96105.63
2022-11-17T00:29:48.774Z,96112.75
2022-11-17T00:32:36.858Z,96108.47
2022-11-17T00:35:06.006Z,96104.97
2022-11-17T00:37:37.937Z,96092.75
2022-11-17T00:40:09.108Z,96097.22
2022-11-17T00:42:37.388Z,96089.09
2022-11-17T00:45:06.727Z,96082.97
2022-11-17T00:47:37.493Z,96080.31
2022-11-17T00:50:07.141Z,96072.38
2022-11-17T00:52:35.416Z,96077.50
2022-11-17T00:55:04.097Z,96082.97
2022-11-17T00:57:33.702Z,96077.69
2022-11-17T01:00:01.905Z,96082.00
2022-11-17T01:02:30.209Z,96073.03
2022-11-17T01:04:58.468Z,96080.13
2022-11-17T01:07:26.834Z,96080.97
2022-11-17T01:09:55.136Z,96075.50
2022-11-17T01:12:23.400Z,96074.47
2022-11-17T01:14:53.048Z,96066.00
2022-11-17T01:17:21.249Z,96090.00
2022-11-17T01:19:50.848Z,96087.34
2022-11-17T01:22:19.194Z,96092.41
2022-11-17T01:24:47.413Z,96089.94
2022-11-17T01:27:15.716Z,96090.72
2022-11-17T01:29:43.951Z,96094.22
2022-11-17T01:32:13.534Z,96087.28
2022-11-17T01:34:41.725Z,96093.56
2022-11-17T01:37:22.021Z,96095.22
2022-11-17T01:39:51.283Z,96086.44
2022-11-17T01:42:22.659Z,96074.22
2022-11-17T01:45:03.212Z,96072.56
2022-11-17T01:47:40.511Z,96061.16
2022-11-17T01:50:17.685Z,96056.31
2022-11-17T01:52:47.557Z,96045.91
2022-11-17T01:55:15.935Z,96043.91
2022-11-17T01:57:49.044Z,96039.44
2022-11-17T02:00:18.638Z,96041.91
2022-11-17T02:02:49.756Z,96040.06
2022-11-17T02:05:38.460Z,96040.25
2022-11-17T02:08:08.165Z,96033.97
2022-11-17T02:10:37.592Z,96034.78
2022-11-17T02:13:06.593Z,96035.59
2022-11-17T02:15:34.920Z,96038.72
2022-11-17T02:18:04.780Z,96035.06
2022-11-17T02:20:51.629Z,96034.06
2022-11-17T02:24:14.118Z,96029.59
2022-11-17T02:27:29.007Z,96019.16
2022-11-17T02:30:05.640Z,96020.97
2022-11-17T02:32:50.144Z,96020.66
2022-11-17T02:35:25.991Z,96012.72
2022-11-17T02:38:04.717Z,96029.88
2022-11-17T02:40:36.404Z,96021.13
2022-11-17T02:43:28.943Z,96022.56
2022-11-17T02:46:04.658Z,96016.66
2022-11-17T02:48:35.946Z,96019.13
2022-11-17T02:51:10.054Z,96016.25
2022-11-17T02:53:39.725Z,96009.50
2022-11-17T02:56:09.228Z,95998.72
2022-11-17T02:58:38.881Z,95992.63
2022-11-17T03:01:33.296Z,95986.69
2022-11-17T03:04:21.997Z,95987.53
2022-11-17T03:07:00.266Z,95990.53
2022-11-17T03:09:40.181Z,95994.00
2022-11-17T03:12:13.495Z,95994.81
2022-11-17T03:14:53.117Z,95987.91
2022-11-17T03:17:28.788Z,95992.34
2022-11-17T03:20:05.194Z,95990.72
2022-11-17T03:22:43.715Z,95996.81
2022-11-17T03:25:19.857Z,95990.53
2022-11-17T03:27:52.141Z,95984.22
2022-11-17T03:30:23.075Z,95982.41
2022-11-17T03:32:55.778Z,95978.56
2022-11-17T03:35:29.059Z,95981.81
2022-11-17T03:38:04.801Z,95968.16
2022-11-17T03:40:35.128Z,95981.41
2022-11-17T03:43:08.075Z,95984.03
2022-11-17T03:45:41.788Z,95983.41
2022-11-17T03:48:15.588Z,95987.91
2022-11-17T03:50:48.040Z,95980.94
2022-11-17T03:53:16.463Z,95975.63
2022-11-17T03:55:53.796Z,95962.91
2022-11-17T03:58:24.031Z,95963.94
2022-11-17T04:00:54.721Z,95945.59
2022-11-17T04:03:23.712Z,95952.50
2022-11-17T04:05:51.933Z,95946.44
2022-11-17T04:08:20.258Z,95930.34
2022-11-17T04:11:06.157Z,95920.75
2022-11-17T04:13:51.750Z,95922.13
2022-11-17T04:16:21.407Z,95925.16
2022-11-17T04:18:51.433Z,95918.84
2022-11-17T04:21:21.625Z,95920.03
2022-11-17T04:23:49.853Z,95915.59
2022-11-17T04:26:35.671Z,95915.59
2022-11-17T04:29:04.129Z,95922.03
2022-11-17T04:31:33.815Z,95915.13
2022-11-17T04:34:04.129Z,95918.59
2022-11-17T04:36:36.170Z,95908.81
2022-11-17T04:39:05.408Z,95902.72
2022-11-17T04:41:53.175Z,95903.50
2022-11-17T04:44:23.978Z,95894.78
2022-11-17T04:46:54.076Z,95892.75
2022-11-17T04:49:24.175Z,95895.38
2022-11-17T04:51:53.666Z,95896.03
2022-11-17T04:54:25.156Z,95887.06
2022-11-17T04:56:54.604Z,95879.78
2022-11-17T04:59:23.187Z,95872.47
2022-11-17T05:01:52.921Z,95848.66
2022-11-17T05:04:36.550Z,95854.94
2022-11-17T05:07:05.247Z,95848.00
2022-11-17T05:09:33.633Z,95848.19
2022-11-17T05:12:19.212Z,95851.03
2022-11-17T05:14:50.303Z,95847.75
2022-11-17T05:17:19.038Z,95849.97
2022-11-17T05:19:48.949Z,95856.06
2022-11-17T05:22:37.204Z,95854.44
2022-11-17T05:25:07.300Z,95850.34
2022-11-17T05:27:37.071Z,95853.19
2022-11-17T05:30:07.849Z,95868.22
2022-11-17T05:32:37.499Z,95866.97
2022-11-17T05:35:06.946Z,95862.84
2022-11-17T05:37:35.152Z,95877.09
2022-11-17T05:40:03.447Z,95878.72
2022-11-17T05:42:31.652Z,95882.19
2022-11-17T05:44:59.889Z,95878.09
2022-11-17T05:47:28.135Z,95880.75
2022-11-17T05:49:57.699Z,95871.78
2022-11-17T05:52:26.006Z,95875.47
2022-11-17T05:54:54.238Z,95869.16
2022-11-17T05:57:30.474Z,95874.63
2022-11-17T06:00:04.466Z,95877.09
2022-11-17T06:02:36.669Z,95878.91
2022-11-17T06:05:07.610Z,95885.84
2022-11-17T06:07:37.379Z,95894.59
2022-11-17T06:10:06.922Z,95891.94
2022-11-17T06:12:35.142Z,95892.59
2022-11-17T06:15:03.564Z,95888.94
2022-11-17T06:17:35.371Z,95901.19
2022-11-17T06:20:10.612Z,95895.69
2022-11-17T06:22:40.172Z,95898.16
2022-11-17T06:25:12.068Z,95894.50
2022-11-17T06:27:41.579Z,95894.31
2022-11-17T06:30:10.738Z,95890.47
2022-11-17T06:32:43.614Z,95893.94
2022-11-17T06:35:16.634Z,95904.53
2022-11-17T06:37:44.927Z,95908.63
2022-11-17T06:40:13.520Z,95910.28
2022-11-17T06:42:59.400Z,95905.78
2022-11-17T06:45:28.268Z,95906.63
2022-11-17T06:47:56.693Z,95890.94
2022-11-17T06:50:26.299Z,95900.69
2022-11-17T06:52:58.838Z,95923.53
2022-11-17T06:55:27.582Z,95922.69
2022-11-17T06:58:01.389Z,95938.13
2022-11-17T07:00:30.312Z,95938.94
2022-11-17T07:03:01.706Z,95930.16
2022-11-17T07:05:32.089Z,95923.06
2022-11-17T07:08:01.088Z,95934.13
2022-11-17T07:10:30.493Z,95937.56
2022-11-17T07:12:59.175Z,95943.69
2022-11-17T07:15:27.983Z,95933.09
2022-11-17T07:17:56.310Z,95937.75
2022-11-17T07:20:24.699Z,95927.16
2022-11-17T07:23:00.895Z,95923.72
2022-11-17T07:25:29.218Z,95921.25
2022-11-17T07:28:00.711Z,95932.44
2022-11-17T07:30:29.016Z,95936.13
2022-11-17T07:32:59.233Z,95922.88
2022-11-17T07:35:27.525Z,95930.63
2022-11-17T07:38:01.370Z,95913.91
2022-11-17T07:40:30.122Z,95902.53
2022-11-17T07:42:58.533Z,95907.63
2022-11-17T07:45:31.892Z,95913.53
2022-11-17T07:48:02.762Z,95922.97
2022-11-17T07:50:31.430Z,95931.53
2022-11-17T07:53:01.230Z,95940.94
2022-11-17T07:55:29.774Z,95941.56
2022-11-17T07:57:59.508Z,95943.06
2022-11-17T08:00:30.579Z,95948.97
2022-11-17T08:03:03.657Z,95955.75
2022-11-17T08:05:32.348Z,95963.50
2022-11-17T08:08:02.314Z,95955.34
2022-11-17T08:10:31.625Z,95950.44
2022-11-17T08:13:01.038Z,95960.63
2022-11-17T08:15:29.788Z,95972.06
2022-11-17T08:18:00.594Z,95963.09
2022-11-17T08:20:30.866Z,95964.78
2022-11-17T08:22:59.167Z,95974.16
2022-11-17T08:25:29.386Z,95974.16
2022-11-17T08:27:58.465Z,95980.91
2022-11-17T08:30:28.585Z,95977.25
2022-11-17T08:32:56.966Z,95972.59
2022-11-17T08:35:26.734Z,95972.41
2022-11-17T08:37:56.707Z,95972.22
2022-11-17T08:40:26.496Z,95943.25
2022-11-17T08:43:00.716Z,95923.84
2022-11-17T08:45:29.555Z,95930.53
2022-11-17T08:47:58.270Z,95941.13
2022-11-17T08:50:27.091Z,95934.81
2022-11-17T08:52:55.355Z,95931.72
2022-11-17T08:55:23.842Z,95928.81
2022-11-17T08:57:52.182Z,95941.56
2022-11-17T09:00:22.307Z,95946.44
2022-11-17T09:02:50.599Z,95951.53
2022-11-17T09:05:19.023Z,95952.97
2022-11-17T09:07:47.360Z,95962.50
2022-11-17T09:10:15.738Z,95966.94
2022-11-17T09:12:44.132Z,95967.06
2022-11-17T09:15:12.594Z,95976.19
2022-11-17T09:17:43.392Z,95971.34
2022-11-17T09:20:13.165Z,95972.44
2022-11-17T09:22:41.417Z,95969.41
2022-11-17T09:25:13.477Z,95972.25
2022-11-17T09:27:42.302Z,95965.94
2022-11-17T09:30:11.820Z,95965.13
2022-11-17T09:32:41.410Z,95965.56
2022-11-17T09:35:10.992Z,95954.38
2022-11-17T09:37:39.369Z,95952.16
2022-11-17T09:40:12.101Z,95948.19
2022-11-17T09:42:42.026Z,95955.75
2022-11-17T09:45:18.809Z,95954.56
2022-11-17T09:48:12.505Z,95950.50
2022-11-17T09:50:48.220Z,95944.66
2022-11-17T09:53:32.583Z,95951.84
2022-11-17T09:56:05.563Z,95948.47
2022-11-17T09:58:40.728Z,95945.91
2022-11-17T10:01:12.988Z,95948.41
2022-11-17T10:03:46.212Z,95936.25
2022-11-17T10:06:18.914Z,95932.63
2022-11-17T10:08:58.260Z,95921.28
2022-11-17T10:11:33.544Z,95913.38
2022-11-17T10:14:14.397Z,95904.03
2022-11-17T10:16:46.226Z,95885.09
2022-11-17T10:19:21.438Z,95883.72
2022-11-17T10:21:53.890Z,95893.75
2022-11-17T10:24:37.374Z,95893.00
2022-11-17T10:27:11.546Z,95892.81
2022-11-17T10:29:39.830Z,95898.78
2022-11-17T10:32:16.104Z,95900.09
2022-11-17T10:34:47.217Z,95893.25
2022-11-17T10:37:30.052Z,95904.38
2022-11-17T10:40:23.673Z,95904.00
2022-11-17T10:43:22.327Z,95914.88
2022-11-17T10:45:53.781Z,95925.34
2022-11-17T10:48:29.030Z,95934.53
2022-11-17T10:51:00.259Z,95937.84
2022-11-17T10:53:45.206Z,95941.91
2022-11-17T10:56:17.844Z,95954.19
2022-11-17T10:59:02.414Z,95948.88
2022-11-17T11:01:36.824Z,95943.78
2022-11-17T11:04:07.693Z,95930.31
2022-11-17T11:06:37.736Z,95935.41
2022-11-17T11:09:12.722Z,95933.75
2022-11-17T11:11:47.464Z,95935.41
2022-11-17T11:14:24.929Z,95932.75
2022-11-17T11:16:53.304Z,95957.47
2022-11-17T11:19:22.423Z,95959.13
2022-11-17T11:22:27.605Z,95946.63
2022-11-17T11:25:12.090Z,95942.16
2022-11-17T11:28:05.371Z,95948.91
2022-11-17T11:30:43.319Z,95947.06
2022-11-17T11:33:29.084Z,95954.25
2022-11-17T11:36:19.475Z,95949.56
2022-11-17T11:38:58.917Z,95949.34
2022-11-17T11:41:43.801Z,95965.53
2022-11-17T11:44:44.581Z,95952.03
2022-11-17T11:47:26.199Z,95946.53
2022-11-17T11:49:58.947Z,95947.38
2022-11-17T11:52:32.755Z,95942.66
2022-11-17T11:55:06.871Z,95934.88
2022-11-17T11:57:38.954Z,95929.38
2022-11-17T12:00:15.908Z,95932.03
2022-11-17T12:02:54.300Z,95932.84
2022-11-17T12:05:32.525Z,95932.66
2022-11-17T12:08:10.883Z,95926.50
2022-11-17T12:10:48.200Z,95926.72
2022-11-17T12:13:20.440Z,95917.75
2022-11-17T12:15:49.064Z,95912.44
2022-11-17T12:18:34.283Z,95916.91
2022-11-17T12:21:06.464Z,95911.16
2022-11-17T12:23:56.172Z,95910.97
2022-11-17T12:26:29.104Z,95910.19
2022-11-17T12:29:46.648Z,95911.16
2022-11-17T12:32:55.364Z,95907.91
2022-11-17T12:35:26.884Z,95912.00
2022-11-17T12:38:39.276Z,95917.31
2022-11-17T12:41:07.602Z,95915.88
2022-11-17T12:43:35.881Z,95925.91
2022-11-17T12:46:23.126Z,95921.59
2022-11-17T12:49:05.104Z,95914.25
2022-11-17T12:51:41.368Z,95903.22
2022-11-17T12:54:21.394Z,95907.13
2022-11-17T12:56:59.325Z,95910.56
2022-11-17T12:59:54.390Z,95904.06
2022-11-17T13:02:38.422Z,95909.97
2022-11-17T13:05:15.834Z,95899.59
2022-11-17T13:07:44.081Z,95905.13
2022-11-17T13:10:26.650Z,95907.19
2022-11-17T13:13:13.813Z,95912.91
2022-11-17T13:15:44.046Z,95914.31
2022-11-17T13:18:20.041Z,95901.06
2022-11-17T13:20:50.230Z,95900.31
2022-11-17T13:23:23.567Z,95891.28
2022-11-17T13:25:52.177Z,95903.56
2022-11-17T13:28:31.899Z,95901.50
2022-11-17T13:31:01.573Z,95902.78
2022-11-17T13:33:33.309Z,95900.31
2022-11-17T13:36:18.228Z,95900.31
2022-11-17T13:38:51.214Z,95900.72
2022-11-17T13:41:20.846Z,95894.59
2022-11-17T13:43:51.001Z,95898.28
2022-11-17T13:46:19.876Z,95895.00
2022-11-17T13:48:50.279Z,95892.13
2022-11-17T13:51:29.643Z,95901.31
2022-11-17T13:54:04.925Z,95896.00
2022-11-17T13:56:36.833Z,95908.25
2022-11-17T13:59:18.127Z,95908.25
2022-11-17T14:01:46.842Z,95903.97
2022-11-17T14:04:22.049Z,95905.81
2022-11-17T14:06:58.026Z,95903.16
2022-11-17T14:09:27.614Z,95905.81
2022-11-17T14:11:56.357Z,95904.78
2022-11-17T14:14:33.948Z,95910.28
2022-11-17T14:17:14.106Z,95905.78
2022-11-17T14:19:42.433Z,95913.59
2022-11-17T14:22:31.426Z,95915.34
2022-11-17T14:25:00.607Z,95916.81
2022-11-17T14:27:41.370Z,95921.69
2022-11-17T14:30:15.808Z,95923.13
2022-11-17T14:32:44.107Z,95923.75
2022-11-17T14:35:15.656Z,95929.28
2022-11-17T14:37:45.378Z,95925.97
2022-11-17T14:40:19.017Z,95928.84
2022-11-17T14:42:47.295Z,95928.03
2022-11-17T14:45:17.633Z,95928.84
2022-11-17T14:47:46.113Z,95920.28
2022-11-17T14:50:16.838Z,95919.03
2022-11-17T14:52:46.916Z,95920.66
2022-11-17T14:55:16.140Z,95912.91
2022-11-17T14:57:46.384Z,95914.97
2022-11-17T15:00:20.607Z,95899.41
2022-11-17T15:02:49.809Z,95901.84
2022-11-17T15:05:18.759Z,95900.63
2022-11-17T15:07:48.386Z,95899.94
2022-11-17T15:10:17.007Z,95906.50
2022-11-17T15:12:45.543Z,95902.81
2022-11-17T15:15:13.826Z,95908.72
2022-11-17T15:17:42.133Z,95915.44
2022-11-17T15:20:11.851Z,95908.47
2022-11-17T15:22:40.229Z,95909.66
2022-11-17T15:25:10.815Z,95907.41
2022-11-17T15:27:39.072Z,95899.81
2022-11-17T15:30:09.377Z,95907.19
2022-11-17T15:32:38.522Z,95911.25
2022-11-17T15:35:07.953Z,95914.28
2022-11-17T15:37:36.277Z,95913.03
2022-11-17T15:40:05.497Z,95915.25
2022-11-17T15:42:35.234Z,95910.34
2022-11-17T15:45:03.570Z,95919.31
2022-11-17T15:47:31.964Z,95915.19
2022-11-17T15:50:10.765Z,95902.31
2022-11-17T15:53:02.868Z,95913.31
2022-11-17T15:55:27.463Z,95915.13
2022-11-17T15:57:57.542Z,95917.34
2022-11-17T16:00:26.099Z,95913.06
2022-11-17T16:02:58.626Z,95912.41
2022-11-17T16:05:27.408Z,95913.16
2022-11-17T16:07:55.836Z,95905.59
2022-11-17T16:10:24.291Z,95909.47
2022-11-17T16:12:53.007Z,95907.19
2022-11-17T16:15:23.431Z,95908.78
2022-11-17T16:17:51.812Z,95903.88
2022-11-17T16:20:20.298Z,95909.38
2022-11-17T16:22:48.807Z,95902.81
2022-11-17T16:25:17.207Z,95911.16
2022-11-17T16:27:45.589Z,95909.69
2022-11-17T16:30:14.905Z,95910.06
2022-11-17T16:32:44.717Z,95900.50
2022-11-17T16:35:13.172Z,95899.66
2022-11-17T16:37:41.474Z,95904.16
2022-11-17T16:40:10.880Z,95901.91
2022-11-17T16:42:39.260Z,95895.13
2022-11-17T16:45:09.119Z,95895.31
2022-11-17T16:47:37.596Z,95905.31
2022-11-17T16:50:08.575Z,95893.44
2022-11-17T16:52:36.965Z,95901.75
2022-11-17T16:55:06.379Z,95890.75
2022-11-17T16:57:34.884Z,95889.47
2022-11-17T17:00:03.896Z,95897.78
2022-11-17T17:02:33.149Z,95896.34
2022-11-17T17:05:01.625Z,95903.06
2022-11-17T17:07:31.437Z,95894.66
2022-11-17T17:09:59.918Z,95904.00
2022-11-17T17:12:29.422Z,95910.50
2022-11-17T17:14:57.849Z,95905.59
2022-11-17T17:17:26.365Z,95910.63
2022-11-17T17:19:54.836Z,95903.06
2022-11-17T17:22:24.233Z,95899.75
2022-11-17T17:24:54.059Z,95895.84
2022-11-17T17:27:22.519Z,95890.94
2022-11-17T17:29:54.602Z,95892.94
2022-11-17T17:32:22.968Z,95899.44
2022-11-17T17:34:51.750Z,95900.00
2022-11-17T17:37:20.383Z,95898.38
2022-11-17T17:39:48.802Z,95900.56
2022-11-17T17:42:18.458Z,95908.88
2022-11-17T17:44:46.687Z,95901.13
2022-11-17T17:47:14.946Z,95901.50
2022-11-17T17:49:43.201Z,95904.50
2022-11-17T17:52:13.992Z,95901.22
2022-11-17T17:54:42.401Z,95897.94
2022-11-17T17:57:10.767Z,95889.34
2022-11-17T17:59:40.396Z,95879.78
2022-11-17T18:02:09.946Z,95887.06
2022-11-17T18:04:38.278Z,95885.44
2022-11-17T18:07:06.656Z,95886.28
2022-11-17T18:09:34.921Z,95890.75
2022-11-17T18:12:03.256Z,95891.75
2022-11-17T18:14:31.515Z,95895.38
2022-11-17T18:17:01.179Z,95896.41
2022-11-17T18:19:32.924Z,95896.41
2022-11-17T18:22:02.175Z,95895.56
2022-11-17T18:24:30.442Z,95897.44
2022-11-17T18:26:58.716Z,95900.25
2022-11-17T18:29:27.271Z,95894.97
2022-11-17T18:31:55.553Z,95893.31
2022-11-17T18:34:26.442Z,95898.59
2022-11-17T18:36:56.671Z,95900.25
2022-11-17T18:39:25.460Z,95896.78
2022-11-17T18:41:53.734Z,95896.78
2022-11-17T18:44:22.090Z,95899.25
2022-11-17T18:46:50.325Z,95893.94
2022-11-17T18:49:19.142Z,95899.06
2022-11-17T18:51:49.236Z,95894.59
2022-11-17T18:54:17.522Z,95886.66
2022-11-17T18:56:45.783Z,95884.00
2022-11-17T18:59:14.772Z,95883.00
2022-11-17T19:01:44.243Z,95883.81
2022-11-17T19:04:14.627Z,95884.63
2022-11-17T19:06:42.891Z,95882.81
2022-11-17T19:09:13.431Z,95882.63
2022-11-17T19:11:42.013Z,95869.19
2022-11-17T19:14:10.309Z,95872.47
2022-11-17T19:16:44.033Z,95872.28
2022-11-17T19:19:15.168Z,95880.44
2022-11-17T19:21:44.152Z,95873.28
2022-11-17T19:24:15.240Z,95877.78
2022-11-17T19:26:43.604Z,95873.09
2022-11-17T19:29:17.214Z,95867.19
2022-11-17T19:31:46.759Z,95864.72
2022-11-17T19:34:15.721Z,95863.06
2022-11-17T19:36:44.569Z,95865.72
2022-11-17T19:39:15.422Z,95865.72
2022-11-17T19:41:47.680Z,95873.66
2022-11-17T19:44:16.027Z,95864.91
2022-11-17T19:46:44.309Z,95872.03
2022-11-17T19:49:13.202Z,95877.31
2022-11-17T19:51:41.986Z,95869.56
2022-11-17T19:54:11.420Z,95871.19
2022-11-17T19:56:41.209Z,95866.72
2022-11-17T19:59:15.367Z,95873.84
2022-11-17T20:01:45.139Z,95872.03
2022-11-17T20:04:13.562Z,95877.50
2022-11-17T20:06:41.890Z,95877.50
2022-11-17T20:09:12.152Z,95883.81
2022-11-17T20:11:42.493Z,95880.53
2022-11-17T20:14:11.021Z,95890.09
2022-11-17T20:16:39.538Z,95893.75
2022-11-17T20:19:08.113Z,95896.41
2022-11-17T20:21:36.592Z,95909.81
2022-11-17T20:24:05.117Z,95896.97
2022-11-17T20:26:35.262Z,95895.16
2022-11-17T20:29:04.892Z,95898.97
2022-11-17T20:31:36.132Z,95894.69
2022-11-17T20:34:06.508Z,95897.53
2022-11-17T20:36:35.593Z,95902.81
2022-11-17T20:39:06.265Z,95902.81
2022-11-17T20:41:34.637Z,95901.97
2022-11-17T20:44:04.716Z,95893.44
2022-11-17T20:46:33.009Z,95893.25
2022-11-17T20:49:01.341Z,95885.13
2022-11-17T20:51:29.580Z,95888.56
2022-11-17T20:53:59.002Z,95892.03
2022-11-17T20:56:27.240Z,95883.28
2022-11-17T20:58:55.488Z,95890.22
2022-11-17T21:01:25.163Z,95884.94
2022-11-17T21:03:54.101Z,95891.84
2022-11-17T21:06:23.348Z,95891.03
2022-11-17T21:08:51.810Z,95894.50
2022-11-17T21:11:40.165Z,95890.84
2022-11-17T21:14:10.949Z,95892.88
2022-11-17T21:16:44.351Z,95890.84
2022-11-17T21:19:13.060Z,95896.13
2022-11-17T21:21:41.519Z,95896.97
2022-11-17T21:24:11.233Z,95889.84
2022-11-17T21:26:39.536Z,95884.56
2022-11-17T21:29:07.792Z,95889.84
2022-11-17T21:31:36.522Z,95890.66
2022-11-17T21:34:08.140Z,95879.44
2022-11-17T21:36:36.929Z,95890.66
2022-11-17T21:39:06.097Z,95889.84
2022-11-17T21:41:37.852Z,95896.78
2022-11-17T21:44:06.341Z,95884.56
2022-11-17T21:46:36.304Z,95892.50
2022-11-17T21:49:06.332Z,95898.59
2022-11-17T21:51:38.543Z,95897.78
2022-11-17T21:54:09.740Z,95898.78
2022-11-17T21:56:38.490Z,95900.44
2022-11-17T21:59:11.060Z,95897.78
2022-11-17T22:01:39.897Z,95901.44
2022-11-17T22:04:09.670Z,95902.91
2022-11-17T22:06:40.020Z,95901.25
2022-11-17T22:09:08.482Z,95898.41
2022-11-17T22:11:37.497Z,95898.41
2022-11-17T22:14:09.842Z,95896.59
2022-11-17T22:16:40.079Z,95895.75
2022-11-17T22:19:10.523Z,95894.78
2022-11-17T22:21:39.889Z,95892.13
2022-11-17T22:24:11.122Z,95897.25
2022-11-17T22:26:41.443Z,95900.50
2022-11-17T22:29:14.989Z,95905.00
2022-11-17T22:31:44.168Z,95906.81
2022-11-17T22:34:14.338Z,95915.59
2022-11-17T22:36:42.743Z,95917.41
2022-11-17T22:39:11.097Z,95932.44
2022-11-17T22:41:39.482Z,95934.28
2022-11-17T22:44:07.879Z,95950.19
2022-11-17T22:46:36.534Z,95948.50
2022-11-17T22:49:04.878Z,95952.00
2022-11-17T22:51:51.965Z,95957.28
2022-11-17T22:54:20.244Z,95964.56
2022-11-17T22:56:48.577Z,95964.56
2022-11-17T22:59:17.583Z,95963.59
2022-11-17T23:01:46.102Z,95970.72
2022-11-17T23:04:15.649Z,95958.31
2022-11-17T23:06:45.826Z,95968.06
2022-11-17T23:09:14.422Z,95971.53
2022-11-17T23:11:43.709Z,95979.47
2022-11-17T23:14:14.948Z,95977.00
2022-11-17T23:16:43.594Z,95979.47
2022-11-17T23:19:14.560Z,95978.84
2022-11-17T23:21:44.400Z,95978.00
2022-11-17T23:24:14.634Z,95978.00
2022-11-17T23:26:43.868Z,95969.06
2022-11-17T23:29:12.416Z,95949.72
2022-11-17T23:31:40.829Z,95933.00
2022-11-17T23:34:12.145Z,95936.47
2022-11-17T23:36:40.425Z,95943.59
2022-11-17T23:39:10.266Z,95953.38
2022-11-17T23:41:38.863Z,95958.66
2022-11-17T23:44:07.625Z,95959.03
2022-11-17T23:46:35.893Z,95964.16
2022-11-17T23:49:04.717Z,95961.50
2022-11-17T23:51:33.058Z,95962.31
2022-11-17T23:54:02.851Z,95960.50
2022-11-17T23:56:35.266Z,95953.56
2022-11-17T23:59:03.640Z,95955.38
